createdAt,value
2022-09-24T00:01:27.865Z,2.50
2022-09-24T00:03:56.738Z,3.03
2022-09-24T00:06:24.450Z,2.60
2022-09-24T00:08:58.168Z,2.47
2022-09-24T00:11:26.852Z,1.90
2022-09-24T00:13:54.388Z,2.20
2022-09-24T00:16:22.577Z,2.22
2022-09-24T00:18:50.088Z,2.45
2022-09-24T00:21:17.277Z,2.88
2022-09-24T00:23:44.865Z,2.17
2022-09-24T00:26:31.471Z,2.58
2022-09-24T00:29:00.097Z,2.10
2022-09-24T00:31:27.698Z,2.17
2022-09-24T00:33:55.261Z,2.10
2022-09-24T00:36:23.166Z,2.65
2022-09-24T00:38:51.806Z,2.15
2022-09-24T00:41:20.341Z,2.00
2022-09-24T00:43:48.697Z,2.05
2022-09-24T00:46:19.307Z,1.60
2022-09-24T00:48:47.994Z,1.80
2022-09-24T00:51:17.973Z,1.75
2022-09-24T00:53:46.853Z,1.63
2022-09-24T00:56:15.592Z,2.42
2022-09-24T00:58:45.661Z,3.03
2022-09-24T01:01:13.062Z,1.60
2022-09-24T01:03:42.251Z,1.90
2022-09-24T01:06:09.992Z,1.90
2022-09-24T01:08:37.214Z,1.73
2022-09-24T01:11:10.781Z,2.20
2022-09-24T01:13:43.416Z,1.33
2022-09-24T01:16:11.147Z,2.15
2022-09-24T01:18:45.054Z,2.60
2022-09-24T01:21:12.228Z,1.75
2022-09-24T01:23:47.782Z,1.80
2022-09-24T01:26:21.734Z,1.67
2022-09-24T01:28:55.763Z,1.98
2022-09-24T01:31:23.032Z,1.70
2022-09-24T01:33:53.435Z,1.63
2022-09-24T01:36:22.085Z,2.10
2022-09-24T01:38:51.458Z,2.10
2022-09-24T01:41:19.997Z,1.70
2022-09-24T01:43:48.423Z,1.50
2022-09-24T01:46:17.627Z,1.55
2022-09-24T01:48:45.247Z,1.65
2022-09-24T01:51:21.341Z,2.03
2022-09-24T01:53:52.246Z,1.42
2022-09-24T01:56:45.928Z,1.63
2022-09-24T01:59:23.131Z,1.42
2022-09-24T02:01:54.410Z,1.35
2022-09-24T02:04:22.209Z,1.27
2022-09-24T02:06:52.586Z,1.65
2022-09-24T02:09:33.278Z,1.50
2022-09-24T02:12:03.921Z,1.27
2022-09-24T02:14:32.585Z,1.40
2022-09-24T02:17:00.155Z,1.30
2022-09-24T02:19:28.041Z,1.10
2022-09-24T02:21:55.739Z,1.38
2022-09-24T02:24:46.008Z,1.80
2022-09-24T02:27:13.423Z,1.45
2022-09-24T02:29:40.728Z,1.40
2022-09-24T02:32:09.590Z,1.83
2022-09-24T02:34:39.374Z,1.10
2022-09-24T02:37:08.523Z,1.38
2022-09-24T02:39:36.327Z,1.17
2022-09-24T02:42:05.513Z,1.60
2022-09-24T02:44:33.266Z,1.40
2022-09-24T02:47:00.969Z,1.40
2022-09-24T02:49:28.336Z,1.40
2022-09-24T02:51:55.992Z,1.15
2022-09-24T02:54:24.064Z,1.20
2022-09-24T02:56:51.601Z,1.17
2022-09-24T02:59:19.292Z,1.15
2022-09-24T03:01:47.165Z,1.58
2022-09-24T03:04:16.423Z,1.20
2022-09-24T03:06:43.930Z,1.38
2022-09-24T03:09:14.143Z,1.77
2022-09-24T03:11:41.408Z,1.15
2022-09-24T03:14:08.744Z,1.30
2022-09-24T03:16:36.076Z,1.10
2022-09-24T03:19:03.382Z,1.20
2022-09-24T03:21:30.900Z,1.50
2022-09-24T03:23:58.180Z,1.10
2022-09-24T03:26:25.622Z,1.30
2022-09-24T03:28:53.295Z,1.85
2022-09-24T03:31:20.998Z,1.10
2022-09-24T03:33:49.411Z,1.30
2022-09-24T03:36:16.652Z,1.60
2022-09-24T03:38:45.546Z,1.48
2022-09-24T03:41:13.531Z,1.27
2022-09-24T03:43:40.843Z,1.38
2022-09-24T03:46:08.684Z,1.25
2022-09-24T03:48:37.453Z,1.35
2022-09-24T03:51:09.062Z,1.10
2022-09-24T03:53:36.497Z,1.30
2022-09-24T03:56:04.422Z,1.50
2022-09-24T03:58:31.743Z,1.33
2022-09-24T04:00:59.628Z,1.15
2022-09-24T04:03:26.889Z,1.10
2022-09-24T04:05:54.418Z,1.30
2022-09-24T04:08:22.214Z,1.30
2022-09-24T04:10:49.706Z,1.50
2022-09-24T04:13:17.140Z,1.40
2022-09-24T04:15:44.528Z,1.60
2022-09-24T04:18:12.056Z,1.60
2022-09-24T04:20:39.820Z,1.55
2022-09-24T04:23:07.266Z,2.28
2022-09-24T04:25:34.811Z,1.90
2022-09-24T04:28:03.461Z,1.98
2022-09-24T04:30:31.807Z,2.40
2022-09-24T04:33:00.464Z,2.80
2022-09-24T04:35:29.920Z,3.20
2022-09-24T04:37:57.766Z,2.88
2022-09-24T04:40:25.070Z,2.72
2022-09-24T04:42:52.553Z,2.08
2022-09-24T04:45:20.894Z,2.88
2022-09-24T04:47:52.597Z,3.08
2022-09-24T04:50:20.731Z,3.13
2022-09-24T04:52:48.275Z,3.15
2022-09-24T04:55:15.652Z,3.05
2022-09-24T04:57:45.098Z,3.40
2022-09-24T05:00:15.379Z,3.90
2022-09-24T05:02:43.474Z,3.55
2022-09-24T05:05:11.393Z,3.15
2022-09-24T05:07:38.831Z,3.58
2022-09-24T05:10:06.625Z,4.22
2022-09-24T05:12:35.406Z,4.32
2022-09-24T05:15:02.835Z,4.00
2022-09-24T05:17:30.070Z,4.20
2022-09-24T05:19:58.025Z,4.63
2022-09-24T05:22:27.502Z,4.57
2022-09-24T05:24:54.740Z,4.20
2022-09-24T05:27:23.187Z,4.57
2022-09-24T05:29:50.834Z,3.72
2022-09-24T05:32:19.508Z,3.58
2022-09-24T05:34:47.220Z,4.78
2022-09-24T05:37:15.450Z,4.32
2022-09-24T05:39:42.804Z,4.50
2022-09-24T05:42:11.247Z,4.72
2022-09-24T05:44:38.561Z,4.90
2022-09-24T05:47:05.813Z,5.18
2022-09-24T05:49:33.117Z,5.18
2022-09-24T05:52:00.415Z,4.72
2022-09-24T05:54:27.801Z,5.10
2022-09-24T05:56:55.130Z,5.38
2022-09-24T05:59:22.330Z,5.88
2022-09-24T06:01:49.613Z,5.15
2022-09-24T06:04:17.056Z,5.32
2022-09-24T06:06:44.510Z,6.20
2022-09-24T06:09:11.837Z,6.70
2022-09-24T06:11:40.656Z,5.80
2022-09-24T06:14:09.085Z,5.90
2022-09-24T06:16:36.707Z,5.55
2022-09-24T06:19:04.105Z,6.07
2022-09-24T06:21:31.326Z,6.03
2022-09-24T06:23:58.592Z,5.47
2022-09-24T06:26:26.426Z,4.70
2022-09-24T06:28:54.283Z,4.95
2022-09-24T06:31:21.583Z,5.20
2022-09-24T06:33:48.969Z,6.32
2022-09-24T06:36:16.230Z,5.30
2022-09-24T06:38:45.391Z,5.38
2022-09-24T06:41:12.663Z,5.15
2022-09-24T06:43:39.942Z,5.28
2022-09-24T06:46:07.257Z,4.63
2022-09-24T06:48:34.606Z,5.13
2022-09-24T06:51:01.846Z,4.57
2022-09-24T06:53:29.107Z,4.20
2022-09-24T06:55:58.751Z,4.55
2022-09-24T06:58:26.437Z,4.18
2022-09-24T07:00:54.917Z,4.45
2022-09-24T07:03:22.660Z,3.88
2022-09-24T07:05:50.006Z,3.92
2022-09-24T07:08:17.728Z,3.22
2022-09-24T07:10:46.034Z,3.65
2022-09-24T07:13:14.305Z,3.63
2022-09-24T07:15:42.160Z,5.03
2022-09-24T07:18:09.940Z,4.22
2022-09-24T07:20:37.235Z,3.70
2022-09-24T07:23:05.321Z,3.58
2022-09-24T07:25:32.930Z,2.97
2022-09-24T07:28:07.931Z,3.40
2022-09-24T07:30:35.604Z,3.25
2022-09-24T07:33:02.953Z,3.15
2022-09-24T07:35:31.177Z,3.05
2022-09-24T07:38:02.424Z,2.65
2022-09-24T07:40:30.328Z,2.50
2022-09-24T07:42:58.484Z,2.35
2022-09-24T07:45:30.104Z,2.25
2022-09-24T07:47:58.760Z,2.08
2022-09-24T07:50:27.425Z,2.20
2022-09-24T07:52:55.301Z,1.73
2022-09-24T07:55:22.933Z,1.63
2022-09-24T07:57:51.866Z,3.95
2022-09-24T08:00:20.002Z,1.38
2022-09-24T08:02:47.823Z,1.80
2022-09-24T08:05:16.624Z,1.90
2022-09-24T08:07:43.928Z,1.85
2022-09-24T08:10:11.567Z,1.42
2022-09-24T08:12:38.799Z,1.85
2022-09-24T08:15:06.253Z,1.38
2022-09-24T08:17:33.466Z,2.05
2022-09-24T08:20:00.669Z,2.15
2022-09-24T08:22:27.873Z,2.30
2022-09-24T08:24:55.920Z,1.83
2022-09-24T08:27:24.101Z,1.98
2022-09-24T08:29:52.047Z,2.00
2022-09-24T08:32:19.304Z,2.33
2022-09-24T08:34:46.566Z,1.83
2022-09-24T08:37:13.995Z,2.65
2022-09-24T08:39:41.321Z,2.38
2022-09-24T08:42:14.543Z,2.53
2022-09-24T08:45:03.039Z,2.15
2022-09-24T08:47:39.729Z,2.67
2022-09-24T08:50:10.453Z,2.10
2022-09-24T08:52:43.502Z,2.28
2022-09-24T08:55:23.813Z,1.92
2022-09-24T08:57:57.049Z,2.20
2022-09-24T09:00:24.353Z,2.05
2022-09-24T09:02:56.334Z,1.90
2022-09-24T09:05:38.745Z,1.90
2022-09-24T09:08:27.369Z,1.80
2022-09-24T09:10:59.781Z,1.92
2022-09-24T09:13:30.914Z,1.92
2022-09-24T09:16:03.324Z,1.75
2022-09-24T09:18:33.583Z,2.00
2022-09-24T09:21:11.617Z,2.22
2022-09-24T09:23:42.202Z,2.35
2022-09-24T09:26:10.871Z,1.60
2022-09-24T09:28:38.203Z,1.40
2022-09-24T09:31:24.587Z,1.80
2022-09-24T09:34:07.154Z,2.00
2022-09-24T09:36:38.853Z,1.73
2022-09-24T09:39:26.330Z,2.33
2022-09-24T09:42:23.116Z,2.13
2022-09-24T09:44:50.379Z,1.85
2022-09-24T09:47:26.753Z,1.80
2022-09-24T09:49:57.113Z,1.92
2022-09-24T09:52:27.646Z,1.60
2022-09-24T09:54:55.088Z,1.83
2022-09-24T09:57:23.878Z,1.40
2022-09-24T09:59:52.584Z,1.75
2022-09-24T10:02:23.702Z,1.33
2022-09-24T10:04:54.220Z,1.40
2022-09-24T10:07:21.525Z,1.40
2022-09-24T10:09:58.762Z,1.30
2022-09-24T10:12:26.713Z,1.95
2022-09-24T10:15:01.264Z,1.42
2022-09-24T10:17:32.920Z,2.00
2022-09-24T10:20:01.081Z,1.40
2022-09-24T10:22:29.459Z,1.40
2022-09-24T10:24:57.660Z,1.83
2022-09-24T10:27:31.552Z,1.25
2022-09-24T10:30:17.842Z,1.90
2022-09-24T10:32:45.844Z,1.00
2022-09-24T10:35:42.522Z,1.23
2022-09-24T10:38:19.896Z,1.20
2022-09-24T10:40:47.824Z,1.52
2022-09-24T10:43:22.365Z,1.40
2022-09-24T10:46:07.916Z,1.27
2022-09-24T10:48:41.129Z,1.60
2022-09-24T10:51:31.628Z,1.40
2022-09-24T10:54:02.042Z,1.20
2022-09-24T10:56:45.994Z,1.13
2022-09-24T10:59:25.771Z,1.17
2022-09-24T11:02:11.462Z,1.75
2022-09-24T11:04:51.066Z,1.40
2022-09-24T11:07:31.245Z,1.45
2022-09-24T11:10:17.568Z,1.40
2022-09-24T11:12:47.847Z,1.30
2022-09-24T11:15:33.291Z,1.60
2022-09-24T11:18:06.946Z,1.50
2022-09-24T11:20:42.241Z,1.17
2022-09-24T11:23:32.509Z,1.48
2022-09-24T11:26:08.688Z,1.33
2022-09-24T11:28:48.979Z,1.40
2022-09-24T11:31:25.113Z,1.10
2022-09-24T11:34:11.030Z,1.20
2022-09-24T11:36:51.470Z,1.10
2022-09-24T11:39:28.832Z,1.45
2022-09-24T11:41:57.584Z,1.10
2022-09-24T11:44:36.974Z,1.13
2022-09-24T11:47:26.485Z,1.35
2022-09-24T11:49:59.662Z,0.98
2022-09-24T11:52:39.713Z,1.25
2022-09-24T11:55:16.137Z,1.60
2022-09-24T11:57:49.579Z,0.95
2022-09-24T12:00:17.993Z,1.17
2022-09-24T12:02:53.436Z,1.05
2022-09-24T12:05:28.694Z,1.30
2022-09-24T12:08:03.646Z,1.10
2022-09-24T12:10:43.215Z,1.27
2022-09-24T12:13:19.671Z,1.08
2022-09-24T12:15:49.849Z,1.02
2022-09-24T12:18:19.738Z,0.90
2022-09-24T12:20:50.235Z,1.23
2022-09-24T12:23:19.294Z,0.70
2022-09-24T12:25:47.964Z,1.63
2022-09-24T12:28:36.384Z,1.05
2022-09-24T12:31:24.520Z,0.90
2022-09-24T12:33:58.803Z,0.80
2022-09-24T12:36:29.026Z,0.80
2022-09-24T12:38:57.917Z,0.80
2022-09-24T12:41:30.557Z,0.70
2022-09-24T12:46:30.964Z,0.75
2022-09-24T12:49:01.060Z,0.63
2022-09-24T12:51:35.603Z,0.70
2022-09-24T12:54:07.515Z,0.90
2022-09-24T12:56:35.145Z,0.60
2022-09-24T12:59:05.547Z,0.57
2022-09-24T13:01:34.456Z,0.77
2022-09-24T13:04:03.366Z,0.70
2022-09-24T13:06:34.554Z,0.63
2022-09-24T13:09:02.016Z,0.50
2022-09-24T13:11:37.579Z,0.50
2022-09-24T13:14:14.113Z,0.55
2022-09-24T13:16:43.141Z,0.43
2022-09-24T13:19:31.448Z,0.73
2022-09-24T13:21:59.902Z,0.45
2022-09-24T13:24:32.058Z,0.60
2022-09-24T13:27:09.503Z,0.60
2022-09-24T13:29:40.733Z,0.80
2022-09-24T13:32:16.513Z,0.40
2022-09-24T13:34:45.378Z,0.90
2022-09-24T13:37:16.201Z,0.50
2022-09-24T13:39:50.570Z,0.52
2022-09-24T13:42:33.261Z,0.50
2022-09-24T13:47:42.547Z,0.50
2022-09-24T13:50:09.895Z,0.50
2022-09-24T13:52:40.559Z,0.40
2022-09-24T13:55:26.594Z,0.57
2022-09-24T13:57:54.399Z,0.80
2022-09-24T14:00:22.930Z,0.50
2022-09-24T14:02:55.645Z,0.30
2022-09-24T14:05:23.299Z,0.38
2022-09-24T14:07:55.466Z,0.50
2022-09-24T14:10:24.934Z,0.50
2022-09-24T14:13:00.546Z,0.52
2022-09-24T14:15:28.046Z,0.55
2022-09-24T14:17:58.692Z,0.63
2022-09-24T14:20:28.446Z,0.40
2022-09-24T14:22:55.895Z,0.45
2022-09-24T14:25:27.794Z,0.40
2022-09-24T14:27:55.255Z,0.40
2022-09-24T14:30:23.712Z,0.40
2022-09-24T14:32:54.053Z,0.40
2022-09-24T14:35:41.658Z,0.98
2022-09-24T14:38:14.010Z,0.65
2022-09-24T14:40:45.183Z,0.40
2022-09-24T14:43:21.859Z,0.60
2022-09-24T14:45:50.084Z,0.57
2022-09-24T14:48:30.843Z,0.60
2022-09-24T14:50:58.343Z,0.40
2022-09-24T14:53:27.390Z,0.43
2022-09-24T14:55:54.757Z,0.52
2022-09-24T14:58:36.236Z,0.32
2022-09-24T15:01:13.881Z,0.52
2022-09-24T15:03:48.412Z,0.40
2022-09-24T15:06:18.717Z,0.30
2022-09-24T15:08:52.812Z,0.30
2022-09-24T15:11:20.380Z,0.30
2022-09-24T15:13:58.341Z,0.45
2022-09-24T15:16:33.774Z,0.30
2022-09-24T15:19:20.614Z,0.28
2022-09-24T15:21:52.343Z,0.30
2022-09-24T15:24:23.069Z,0.47
2022-09-24T15:27:00.856Z,0.70
2022-09-24T15:29:28.172Z,0.20
2022-09-24T15:31:56.610Z,0.30
2022-09-24T15:34:23.897Z,0.35
2022-09-24T15:36:55.334Z,0.60
2022-09-24T15:39:23.395Z,0.20
2022-09-24T15:41:50.602Z,0.55
2022-09-24T15:44:22.919Z,0.40
2022-09-24T15:46:51.246Z,0.45
2022-09-24T15:49:21.867Z,0.47
2022-09-24T15:51:50.706Z,0.50
2022-09-24T15:54:18.054Z,0.50
2022-09-24T15:56:46.869Z,0.30
2022-09-24T15:59:14.815Z,0.40
2022-09-24T16:01:43.031Z,0.30
2022-09-24T16:04:12.294Z,0.28
2022-09-24T16:06:39.860Z,0.38
2022-09-24T16:09:07.084Z,0.47
2022-09-24T16:11:34.465Z,0.40
2022-09-24T16:14:01.681Z,0.60
2022-09-24T16:16:29.030Z,0.47
2022-09-24T16:18:56.313Z,0.40
2022-09-24T16:21:23.592Z,0.40
2022-09-24T16:23:57.532Z,0.45
2022-09-24T16:26:25.077Z,0.43
2022-09-24T16:28:52.534Z,0.52
2022-09-24T16:31:20.171Z,0.40
2022-09-24T16:33:48.054Z,0.40
2022-09-24T16:36:15.644Z,0.38
2022-09-24T16:38:42.854Z,0.43
2022-09-24T16:41:10.834Z,0.70
2022-09-24T16:43:38.111Z,0.45
2022-09-24T16:46:07.229Z,0.50
2022-09-24T16:48:34.601Z,0.50
2022-09-24T16:51:03.263Z,0.60
2022-09-24T16:53:30.651Z,0.50
2022-09-24T16:56:13.809Z,0.50
2022-09-24T16:58:41.812Z,0.60
2022-09-24T17:01:10.549Z,0.80
2022-09-24T17:03:37.859Z,0.60
2022-09-24T17:06:05.507Z,0.60
2022-09-24T17:08:52.386Z,0.60
2022-09-24T17:11:19.954Z,0.68
2022-09-24T17:13:47.783Z,0.68
2022-09-24T17:16:15.710Z,0.70
2022-09-24T17:18:43.045Z,0.90
2022-09-24T17:21:11.956Z,3.85
2022-09-24T17:23:39.648Z,2.20
2022-09-24T17:26:14.019Z,9.48
2022-09-24T17:28:42.387Z,4.47
2022-09-24T17:31:11.085Z,13.55
2022-09-24T17:33:43.435Z,3.78
2022-09-24T17:36:12.512Z,1.08
2022-09-24T17:38:39.967Z,0.98
2022-09-24T17:41:08.741Z,0.63
2022-09-24T17:43:36.300Z,0.70
2022-09-24T17:46:08.683Z,0.70
2022-09-24T17:48:39.664Z,0.80
2022-09-24T17:51:08.000Z,0.63
2022-09-24T17:53:36.042Z,0.70
2022-09-24T17:56:04.331Z,0.65
2022-09-24T17:58:32.031Z,0.70
2022-09-24T18:01:07.092Z,0.60
2022-09-24T18:03:34.507Z,0.50
2022-09-24T18:06:02.678Z,0.77
2022-09-24T18:08:29.938Z,0.93
2022-09-24T18:11:07.683Z,0.80
2022-09-24T18:13:35.097Z,1.05
2022-09-24T18:16:03.151Z,0.90
2022-09-24T18:18:30.695Z,0.80
2022-09-24T18:21:04.992Z,0.90
2022-09-24T18:23:34.805Z,1.00
2022-09-24T18:26:15.981Z,1.20
2022-09-24T18:28:53.110Z,0.80
2022-09-24T18:31:21.729Z,0.90
2022-09-24T18:33:50.282Z,0.90
2022-09-24T18:36:19.039Z,1.52
2022-09-24T18:38:46.297Z,1.00
2022-09-24T18:41:24.039Z,1.13
2022-09-24T18:43:51.741Z,1.08
2022-09-24T18:46:19.623Z,1.38
2022-09-24T18:48:48.464Z,1.10
2022-09-24T18:51:22.645Z,1.63
2022-09-24T18:53:57.082Z,1.15
2022-09-24T18:56:24.636Z,1.05
2022-09-24T18:58:58.727Z,0.85
2022-09-24T19:01:27.157Z,0.90
2022-09-24T19:04:00.377Z,0.90
2022-09-24T19:06:28.581Z,0.90
2022-09-24T19:08:55.892Z,0.75
2022-09-24T19:11:23.225Z,0.70
2022-09-24T19:13:52.207Z,0.63
2022-09-24T19:16:20.449Z,0.75
2022-09-24T19:18:47.812Z,0.65
2022-09-24T19:21:15.612Z,0.80
2022-09-24T19:23:44.802Z,0.60
2022-09-24T19:26:13.208Z,0.57
2022-09-24T19:28:41.425Z,0.60
2022-09-24T19:31:20.134Z,0.80
2022-09-24T19:33:47.597Z,0.60
2022-09-24T19:36:15.662Z,0.75
2022-09-24T19:38:42.895Z,0.60
2022-09-24T19:41:22.716Z,0.60
2022-09-24T19:43:52.045Z,1.05
2022-09-24T19:46:21.093Z,0.90
2022-09-24T19:48:49.251Z,0.90
2022-09-24T19:51:17.811Z,1.00
2022-09-24T19:53:47.490Z,0.77
2022-09-24T19:56:16.322Z,1.00
2022-09-24T19:58:47.149Z,0.90
2022-09-24T20:01:17.329Z,0.98
2022-09-24T20:03:45.229Z,1.23
2022-09-24T20:06:17.010Z,0.88
2022-09-24T20:08:44.316Z,0.80
2022-09-24T20:11:17.105Z,1.10
2022-09-24T20:13:47.317Z,0.90
2022-09-24T20:16:19.588Z,1.05
2022-09-24T20:18:47.872Z,1.10
2022-09-24T20:21:17.167Z,1.05
2022-09-24T20:23:45.004Z,0.80
2022-09-24T20:26:31.594Z,1.00
2022-09-24T20:28:59.294Z,0.80
2022-09-24T20:31:26.844Z,1.08
2022-09-24T20:33:54.206Z,0.85
2022-09-24T20:36:24.467Z,0.70
2022-09-24T20:38:52.634Z,0.82
2022-09-24T20:41:21.156Z,0.85
2022-09-24T20:43:48.426Z,0.82
2022-09-24T20:46:21.805Z,1.05
2022-09-24T20:48:49.338Z,0.88
2022-09-24T20:51:18.204Z,0.85
2022-09-24T20:53:46.178Z,0.70
2022-09-24T20:56:13.640Z,0.80
2022-09-24T20:58:41.228Z,1.10
2022-09-24T21:01:09.186Z,0.90
2022-09-24T21:03:44.432Z,0.90
2022-09-24T21:06:12.830Z,0.90
2022-09-24T21:08:40.948Z,0.70
2022-09-24T21:11:10.092Z,1.10
2022-09-24T21:13:41.009Z,0.80
2022-09-24T21:16:09.557Z,0.90
2022-09-24T21:18:40.099Z,0.65
2022-09-24T21:21:08.465Z,0.70
2022-09-24T21:23:38.022Z,0.90
2022-09-24T21:26:11.572Z,1.10
2022-09-24T21:28:39.110Z,0.70
2022-09-24T21:31:07.424Z,0.52
2022-09-24T21:33:35.402Z,0.70
2022-09-24T21:36:03.551Z,0.93
2022-09-24T21:38:31.014Z,0.70
2022-09-24T21:40:58.894Z,0.60
2022-09-24T21:43:29.738Z,0.75
2022-09-24T21:46:02.359Z,0.68
2022-09-24T21:48:30.693Z,0.60
2022-09-24T21:51:13.620Z,0.65
2022-09-24T21:56:08.073Z,0.80
2022-09-24T21:58:35.363Z,1.08
2022-09-24T22:01:05.021Z,0.90
2022-09-24T22:03:32.945Z,0.60
2022-09-24T22:06:03.275Z,0.70
2022-09-24T22:08:32.014Z,0.77
2022-09-24T22:11:04.417Z,0.47
2022-09-24T22:13:32.795Z,0.52
2022-09-24T22:16:00.741Z,1.10
2022-09-24T22:18:28.527Z,0.70
2022-09-24T22:20:56.531Z,0.40
2022-09-24T22:23:24.266Z,0.60
2022-09-24T22:25:55.858Z,0.60
2022-09-24T22:28:24.446Z,0.55
2022-09-24T22:30:55.960Z,0.77
2022-09-24T22:33:42.576Z,0.75
2022-09-24T22:36:09.885Z,0.70
2022-09-24T22:38:37.335Z,0.90
2022-09-24T22:41:05.665Z,0.90
2022-09-24T22:43:33.465Z,0.65
2022-09-24T22:46:01.540Z,0.80
2022-09-24T22:48:28.966Z,0.85
2022-09-24T22:50:56.204Z,0.60
2022-09-24T22:53:23.438Z,0.70
2022-09-24T22:55:52.795Z,0.70
2022-09-24T22:58:20.249Z,0.65
2022-09-24T23:00:47.495Z,0.60
2022-09-24T23:03:14.770Z,0.88
2022-09-24T23:05:41.994Z,1.02
2022-09-24T23:08:09.201Z,0.60
2022-09-24T23:10:36.416Z,0.57
2022-09-24T23:13:03.654Z,0.77
2022-09-24T23:15:31.117Z,0.63
2022-09-24T23:17:58.320Z,0.95
2022-09-24T23:20:25.521Z,0.75
2022-09-24T23:22:52.777Z,0.60
2022-09-24T23:25:20.018Z,0.60
2022-09-24T23:27:47.253Z,0.90
2022-09-24T23:30:14.914Z,0.50
2022-09-24T23:32:42.112Z,0.68
2022-09-24T23:35:09.406Z,0.70
2022-09-24T23:37:36.674Z,0.50
2022-09-24T23:40:03.978Z,0.65
2022-09-24T23:42:31.719Z,0.68
2022-09-24T23:44:59.012Z,0.80
2022-09-24T23:47:26.473Z,0.65
2022-09-24T23:49:53.674Z,0.70
2022-09-24T23:52:20.918Z,0.60
2022-09-24T23:54:48.118Z,0.43
2022-09-24T23:57:15.537Z,0.55
2022-09-24T23:59:42.762Z,0.68
